sensor_id;sensor_type;location;lat;lon;timestamp;P1;durP1;ratioP1;P2;durP2;ratioP2
140;SDS011;65;48.778;9.160;2023-04-03T00:00:06;6.45;;;3.28;;
140;SDS011;65;48.778;9.160;2023-04-03T00:02:53;6.25;;;2.97;;
140;SDS011;65;48.778;9.160;2023-04-03T00:05:38;6.43;;;3.17;;
140;SDS011;65;48.778;9.160;2023-04-03T00:08:24;7.28;;;3.25;;
140;SDS011;65;48.778;9.160;2023-04-03T00:11:10;5.90;;;3.08;;
140;SDS011;65;48.778;9.160;2023-04-03T00:13:56;4.95;;;3.05;;
140;SDS011;65;48.778;9.160;2023-04-03T00:16:42;6.32;;;3.15;;
140;SDS011;65;48.778;9.160;2023-04-03T00:19:27;6.18;;;2.97;;
140;SDS011;65;48.778;9.160;2023-04-03T00:22:13;6.90;;;3.00;;
140;SDS011;65;48.778;9.160;2023-04-03T00:24:59;5.38;;;2.88;;
140;SDS011;65;48.778;9.160;2023-04-03T00:27:45;5.17;;;3.13;;
140;SDS011;65;48.778;9.160;2023-04-03T00:30:31;7.60;;;3.30;;
140;SDS011;65;48.778;9.160;2023-04-03T00:33:17;5.50;;;3.20;;
140;SDS011;65;48.778;9.160;2023-04-03T00:36:05;6.47;;;2.90;;
140;SDS011;65;48.778;9.160;2023-04-03T00:38:52;5.72;;;3.40;;
140;SDS011;65;48.778;9.160;2023-04-03T00:41:38;5.13;;;3.00;;
140;SDS011;65;48.778;9.160;2023-04-03T00:47:18;7.07;;;2.92;;
140;SDS011;65;48.778;9.160;2023-04-03T00:50:05;4.90;;;2.85;;
140;SDS011;65;48.778;9.160;2023-04-03T00:52:51;6.22;;;3.20;;
140;SDS011;65;48.778;9.160;2023-04-03T00:55:38;5.85;;;3.15;;
140;SDS011;65;48.778;9.160;2023-04-03T00:58:26;7.35;;;3.38;;
140;SDS011;65;48.778;9.160;2023-04-03T01:01:20;6.47;;;2.90;;
140;SDS011;65;48.778;9.160;2023-04-03T01:04:26;6.00;;;3.28;;
140;SDS011;65;48.778;9.160;2023-04-03T01:07:27;5.88;;;3.10;;
140;SDS011;65;48.778;9.160;2023-04-03T01:10:15;6.15;;;3.15;;
140;SDS011;65;48.778;9.160;2023-04-03T01:13:07;6.15;;;3.35;;
140;SDS011;65;48.778;9.160;2023-04-03T01:16:04;4.65;;;2.90;;
140;SDS011;65;48.778;9.160;2023-04-03T01:18:51;6.55;;;3.50;;
140;SDS011;65;48.778;9.160;2023-04-03T01:21:44;6.03;;;3.00;;
140;SDS011;65;48.778;9.160;2023-04-03T01:24:48;6.28;;;3.03;;
140;SDS011;65;48.778;9.160;2023-04-03T01:27:34;7.50;;;3.35;;
140;SDS011;65;48.778;9.160;2023-04-03T01:30:20;5.82;;;3.15;;
140;SDS011;65;48.778;9.160;2023-04-03T01:33:09;7.60;;;3.35;;
140;SDS011;65;48.778;9.160;2023-04-03T01:35:54;7.30;;;2.87;;
140;SDS011;65;48.778;9.160;2023-04-03T01:38:40;6.90;;;3.05;;
140;SDS011;65;48.778;9.160;2023-04-03T01:41:26;7.47;;;3.33;;
140;SDS011;65;48.778;9.160;2023-04-03T01:44:13;6.72;;;3.15;;
140;SDS011;65;48.778;9.160;2023-04-03T01:46:59;8.60;;;3.27;;
140;SDS011;65;48.778;9.160;2023-04-03T01:49:45;5.57;;;3.13;;
140;SDS011;65;48.778;9.160;2023-04-03T01:52:30;7.30;;;3.17;;
140;SDS011;65;48.778;9.160;2023-04-03T01:55:16;5.93;;;3.13;;
140;SDS011;65;48.778;9.160;2023-04-03T01:58:02;6.17;;;3.63;;
140;SDS011;65;48.778;9.160;2023-04-03T02:00:48;5.80;;;3.20;;
140;SDS011;65;48.778;9.160;2023-04-03T02:03:33;6.43;;;3.17;;
140;SDS011;65;48.778;9.160;2023-04-03T02:06:19;7.00;;;3.50;;
140;SDS011;65;48.778;9.160;2023-04-03T02:09:05;7.22;;;3.90;;
140;SDS011;65;48.778;9.160;2023-04-03T02:11:51;8.20;;;4.13;;
140;SDS011;65;48.778;9.160;2023-04-03T02:14:45;8.40;;;3.47;;
140;SDS011;65;48.778;9.160;2023-04-03T02:17:31;5.47;;;3.15;;
140;SDS011;65;48.778;9.160;2023-04-03T02:20:17;6.30;;;3.40;;
140;SDS011;65;48.778;9.160;2023-04-03T02:23:03;6.20;;;3.42;;
140;SDS011;65;48.778;9.160;2023-04-03T02:25:49;6.43;;;3.15;;
140;SDS011;65;48.778;9.160;2023-04-03T02:28:34;5.55;;;2.97;;
140;SDS011;65;48.778;9.160;2023-04-03T02:31:20;5.73;;;3.07;;
140;SDS011;65;48.778;9.160;2023-04-03T02:34:07;6.00;;;3.42;;
140;SDS011;65;48.778;9.160;2023-04-03T02:36:53;7.15;;;3.30;;
140;SDS011;65;48.778;9.160;2023-04-03T02:39:39;7.40;;;3.65;;
140;SDS011;65;48.778;9.160;2023-04-03T02:42:24;6.47;;;3.13;;
140;SDS011;65;48.778;9.160;2023-04-03T02:45:10;5.95;;;3.08;;
140;SDS011;65;48.778;9.160;2023-04-03T02:47:56;5.30;;;3.08;;
140;SDS011;65;48.778;9.160;2023-04-03T02:50:41;7.07;;;3.05;;
140;SDS011;65;48.778;9.160;2023-04-03T02:53:27;6.80;;;3.00;;
140;SDS011;65;48.778;9.160;2023-04-03T02:56:13;4.87;;;2.67;;
140;SDS011;65;48.778;9.160;2023-04-03T02:58:59;6.60;;;3.20;;
140;SDS011;65;48.778;9.160;2023-04-03T03:01:50;6.40;;;2.78;;
140;SDS011;65;48.778;9.160;2023-04-03T03:04:35;5.32;;;3.20;;
140;SDS011;65;48.778;9.160;2023-04-03T03:07:21;5.53;;;2.95;;
140;SDS011;65;48.778;9.160;2023-04-03T03:10:07;6.55;;;3.05;;
140;SDS011;65;48.778;9.160;2023-04-03T03:12:53;5.85;;;3.00;;
140;SDS011;65;48.778;9.160;2023-04-03T03:15:39;5.70;;;2.77;;
140;SDS011;65;48.778;9.160;2023-04-03T03:18:25;4.50;;;2.73;;
140;SDS011;65;48.778;9.160;2023-04-03T03:21:11;7.32;;;3.10;;
140;SDS011;65;48.778;9.160;2023-04-03T03:23:56;7.93;;;3.20;;
140;SDS011;65;48.778;9.160;2023-04-03T03:26:42;4.45;;;2.67;;
140;SDS011;65;48.778;9.160;2023-04-03T03:29:28;5.90;;;3.42;;
140;SDS011;65;48.778;9.160;2023-04-03T03:32:14;6.43;;;2.90;;
140;SDS011;65;48.778;9.160;2023-04-03T03:34:59;5.20;;;2.90;;
140;SDS011;65;48.778;9.160;2023-04-03T03:37:45;5.82;;;2.80;;
140;SDS011;65;48.778;9.160;2023-04-03T03:40:31;6.18;;;3.20;;
140;SDS011;65;48.778;9.160;2023-04-03T03:43:17;6.20;;;3.17;;
140;SDS011;65;48.778;9.160;2023-04-03T03:46:03;6.00;;;2.60;;
140;SDS011;65;48.778;9.160;2023-04-03T03:48:49;8.07;;;3.33;;
140;SDS011;65;48.778;9.160;2023-04-03T03:51:35;5.80;;;3.20;;
140;SDS011;65;48.778;9.160;2023-04-03T03:54:20;4.78;;;2.80;;
140;SDS011;65;48.778;9.160;2023-04-03T03:57:06;5.32;;;2.90;;
140;SDS011;65;48.778;9.160;2023-04-03T03:59:52;6.15;;;2.97;;
140;SDS011;65;48.778;9.160;2023-04-03T04:02:38;5.43;;;2.63;;
140;SDS011;65;48.778;9.160;2023-04-03T04:05:24;5.57;;;2.85;;
140;SDS011;65;48.778;9.160;2023-04-03T04:08:09;5.57;;;3.07;;
140;SDS011;65;48.778;9.160;2023-04-03T04:10:55;5.43;;;2.83;;
140;SDS011;65;48.778;9.160;2023-04-03T04:13:41;6.20;;;3.17;;
140;SDS011;65;48.778;9.160;2023-04-03T04:16:26;6.30;;;2.60;;
140;SDS011;65;48.778;9.160;2023-04-03T04:19:13;6.23;;;3.17;;
140;SDS011;65;48.778;9.160;2023-04-03T04:21:59;6.37;;;2.80;;
140;SDS011;65;48.778;9.160;2023-04-03T04:24:44;5.83;;;2.70;;
140;SDS011;65;48.778;9.160;2023-04-03T04:27:30;4.75;;;2.70;;
140;SDS011;65;48.778;9.160;2023-04-03T04:30:16;6.65;;;3.15;;
140;SDS011;65;48.778;9.160;2023-04-03T04:33:02;4.88;;;2.88;;
140;SDS011;65;48.778;9.160;2023-04-03T04:35:48;5.13;;;2.80;;
140;SDS011;65;48.778;9.160;2023-04-03T04:38:33;5.20;;;3.00;;
140;SDS011;65;48.778;9.160;2023-04-03T04:41:20;6.25;;;2.50;;
140;SDS011;65;48.778;9.160;2023-04-03T04:44:07;4.97;;;2.72;;
140;SDS011;65;48.778;9.160;2023-04-03T04:46:53;4.40;;;2.50;;
140;SDS011;65;48.778;9.160;2023-04-03T04:49:39;5.63;;;2.90;;
140;SDS011;65;48.778;9.160;2023-04-03T04:52:25;5.35;;;2.85;;
140;SDS011;65;48.778;9.160;2023-04-03T04:55:10;6.05;;;3.10;;
140;SDS011;65;48.778;9.160;2023-04-03T04:57:56;4.72;;;2.63;;
140;SDS011;65;48.778;9.160;2023-04-03T05:00:42;5.18;;;2.53;;
140;SDS011;65;48.778;9.160;2023-04-03T05:03:28;5.93;;;2.70;;
140;SDS011;65;48.778;9.160;2023-04-03T05:06:13;6.90;;;2.63;;
140;SDS011;65;48.778;9.160;2023-04-03T05:08:59;5.50;;;2.60;;
140;SDS011;65;48.778;9.160;2023-04-03T05:11:45;5.00;;;2.83;;
140;SDS011;65;48.778;9.160;2023-04-03T05:14:31;8.60;;;2.70;;
140;SDS011;65;48.778;9.160;2023-04-03T05:17:17;4.55;;;2.83;;
140;SDS011;65;48.778;9.160;2023-04-03T05:20:03;5.28;;;2.80;;
140;SDS011;65;48.778;9.160;2023-04-03T05:22:50;5.90;;;2.83;;
140;SDS011;65;48.778;9.160;2023-04-03T05:25:37;4.03;;;2.55;;
140;SDS011;65;48.778;9.160;2023-04-03T05:28:23;6.90;;;2.70;;
140;SDS011;65;48.778;9.160;2023-04-03T05:31:09;6.60;;;3.10;;
140;SDS011;65;48.778;9.160;2023-04-03T05:33:55;5.45;;;2.70;;
140;SDS011;65;48.778;9.160;2023-04-03T05:36:41;3.90;;;2.60;;
140;SDS011;65;48.778;9.160;2023-04-03T05:39:27;5.82;;;2.90;;
140;SDS011;65;48.778;9.160;2023-04-03T05:42:13;5.17;;;2.57;;
140;SDS011;65;48.778;9.160;2023-04-03T05:45:00;6.68;;;3.13;;
140;SDS011;65;48.778;9.160;2023-04-03T05:47:46;4.60;;;2.58;;
140;SDS011;65;48.778;9.160;2023-04-03T05:50:32;5.88;;;2.88;;
140;SDS011;65;48.778;9.160;2023-04-03T05:53:22;5.03;;;2.65;;
140;SDS011;65;48.778;9.160;2023-04-03T05:56:13;9.13;;;3.13;;
140;SDS011;65;48.778;9.160;2023-04-03T05:58:58;8.63;;;3.25;;
140;SDS011;65;48.778;9.160;2023-04-03T06:01:44;6.47;;;2.88;;
140;SDS011;65;48.778;9.160;2023-04-03T06:04:31;5.20;;;2.92;;
140;SDS011;65;48.778;9.160;2023-04-03T06:07:18;5.80;;;2.78;;
140;SDS011;65;48.778;9.160;2023-04-03T06:10:06;6.47;;;2.95;;
140;SDS011;65;48.778;9.160;2023-04-03T06:12:54;5.38;;;2.60;;
140;SDS011;65;48.778;9.160;2023-04-03T06:15:39;6.88;;;3.22;;
140;SDS011;65;48.778;9.160;2023-04-03T06:18:25;6.63;;;3.20;;
140;SDS011;65;48.778;9.160;2023-04-03T06:21:11;4.93;;;2.35;;
140;SDS011;65;48.778;9.160;2023-04-03T06:23:57;6.28;;;2.40;;
140;SDS011;65;48.778;9.160;2023-04-03T06:26:43;6.05;;;3.10;;
140;SDS011;65;48.778;9.160;2023-04-03T06:29:32;7.55;;;2.70;;
140;SDS011;65;48.778;9.160;2023-04-03T06:32:18;6.05;;;2.85;;
140;SDS011;65;48.778;9.160;2023-04-03T06:35:04;5.07;;;2.70;;
140;SDS011;65;48.778;9.160;2023-04-03T06:37:51;6.68;;;2.80;;
140;SDS011;65;48.778;9.160;2023-04-03T06:40:36;5.47;;;3.00;;
140;SDS011;65;48.778;9.160;2023-04-03T06:43:22;8.68;;;2.80;;
140;SDS011;65;48.778;9.160;2023-04-03T06:46:15;8.20;;;3.10;;
140;SDS011;65;48.778;9.160;2023-04-03T06:49:01;6.40;;;2.97;;
140;SDS011;65;48.778;9.160;2023-04-03T06:51:47;8.90;;;2.90;;
140;SDS011;65;48.778;9.160;2023-04-03T06:54:33;5.03;;;2.65;;
140;SDS011;65;48.778;9.160;2023-04-03T06:57:19;6.00;;;3.17;;
140;SDS011;65;48.778;9.160;2023-04-03T07:00:05;6.20;;;2.67;;
140;SDS011;65;48.778;9.160;2023-04-03T07:02:52;8.27;;;2.92;;
140;SDS011;65;48.778;9.160;2023-04-03T07:05:38;6.85;;;2.97;;
140;SDS011;65;48.778;9.160;2023-04-03T07:08:24;6.18;;;3.03;;
140;SDS011;65;48.778;9.160;2023-04-03T07:11:11;5.20;;;2.78;;
140;SDS011;65;48.778;9.160;2023-04-03T07:13:57;8.15;;;3.05;;
140;SDS011;65;48.778;9.160;2023-04-03T07:16:43;8.48;;;2.80;;
140;SDS011;65;48.778;9.160;2023-04-03T07:19:29;6.30;;;3.50;;
140;SDS011;65;48.778;9.160;2023-04-03T07:22:16;5.30;;;2.47;;
140;SDS011;65;48.778;9.160;2023-04-03T07:25:03;5.57;;;3.00;;
140;SDS011;65;48.778;9.160;2023-04-03T07:27:49;4.88;;;2.70;;
140;SDS011;65;48.778;9.160;2023-04-03T07:30:42;5.85;;;2.70;;
140;SDS011;65;48.778;9.160;2023-04-03T07:33:32;6.90;;;3.20;;
140;SDS011;65;48.778;9.160;2023-04-03T07:36:19;7.95;;;3.17;;
140;SDS011;65;48.778;9.160;2023-04-03T07:39:07;5.70;;;2.65;;
140;SDS011;65;48.778;9.160;2023-04-03T07:41:53;8.30;;;3.20;;
140;SDS011;65;48.778;9.160;2023-04-03T07:44:41;5.00;;;2.90;;
140;SDS011;65;48.778;9.160;2023-04-03T07:47:27;6.00;;;2.83;;
140;SDS011;65;48.778;9.160;2023-04-03T07:50:13;7.18;;;3.00;;
140;SDS011;65;48.778;9.160;2023-04-03T07:52:58;8.68;;;2.85;;
140;SDS011;65;48.778;9.160;2023-04-03T07:55:53;5.60;;;2.78;;
140;SDS011;65;48.778;9.160;2023-04-03T07:58:41;5.45;;;3.03;;
140;SDS011;65;48.778;9.160;2023-04-03T08:01:27;7.38;;;3.00;;
140;SDS011;65;48.778;9.160;2023-04-03T08:04:13;5.25;;;2.90;;
140;SDS011;65;48.778;9.160;2023-04-03T08:06:58;5.60;;;2.90;;
140;SDS011;65;48.778;9.160;2023-04-03T08:09:44;6.78;;;2.80;;
140;SDS011;65;48.778;9.160;2023-04-03T08:12:30;6.95;;;3.08;;
140;SDS011;65;48.778;9.160;2023-04-03T08:15:17;7.57;;;3.45;;
140;SDS011;65;48.778;9.160;2023-04-03T08:18:03;8.68;;;3.28;;
140;SDS011;65;48.778;9.160;2023-04-03T08:20:49;6.30;;;3.00;;
140;SDS011;65;48.778;9.160;2023-04-03T08:23:34;5.60;;;2.83;;
140;SDS011;65;48.778;9.160;2023-04-03T08:26:20;6.05;;;2.90;;
140;SDS011;65;48.778;9.160;2023-04-03T08:29:06;6.80;;;3.10;;
140;SDS011;65;48.778;9.160;2023-04-03T08:31:52;5.88;;;2.72;;
140;SDS011;65;48.778;9.160;2023-04-03T08:34:38;5.90;;;2.72;;
140;SDS011;65;48.778;9.160;2023-04-03T08:37:24;7.88;;;3.33;;
140;SDS011;65;48.778;9.160;2023-04-03T08:40:13;5.72;;;3.00;;
140;SDS011;65;48.778;9.160;2023-04-03T08:43:11;6.65;;;3.00;;
140;SDS011;65;48.778;9.160;2023-04-03T08:46:02;6.03;;;3.10;;
140;SDS011;65;48.778;9.160;2023-04-03T08:48:51;7.28;;;3.30;;
140;SDS011;65;48.778;9.160;2023-04-03T08:51:38;6.45;;;2.95;;
140;SDS011;65;48.778;9.160;2023-04-03T08:54:30;5.45;;;2.95;;
140;SDS011;65;48.778;9.160;2023-04-03T08:57:20;7.68;;;3.40;;
140;SDS011;65;48.778;9.160;2023-04-03T09:02:59;8.13;;;2.78;;
140;SDS011;65;48.778;9.160;2023-04-03T09:05:47;7.80;;;2.75;;
140;SDS011;65;48.778;9.160;2023-04-03T09:08:43;5.68;;;2.47;;
140;SDS011;65;48.778;9.160;2023-04-03T09:21:08;6.30;;;3.00;;
140;SDS011;65;48.778;9.160;2023-04-03T09:24:02;7.70;;;2.90;;
140;SDS011;65;48.778;9.160;2023-04-03T09:26:53;4.72;;;2.42;;
140;SDS011;65;48.778;9.160;2023-04-03T09:29:52;5.93;;;2.70;;
140;SDS011;65;48.778;9.160;2023-04-03T09:32:40;8.02;;;3.15;;
140;SDS011;65;48.778;9.160;2023-04-03T09:35:28;6.80;;;2.60;;
140;SDS011;65;48.778;9.160;2023-04-03T09:38:18;5.57;;;3.10;;
140;SDS011;65;48.778;9.160;2023-04-03T09:41:16;8.45;;;3.00;;
140;SDS011;65;48.778;9.160;2023-04-03T09:44:17;8.25;;;2.97;;
140;SDS011;65;48.778;9.160;2023-04-03T09:47:19;4.70;;;2.63;;
140;SDS011;65;48.778;9.160;2023-04-03T09:53:01;5.97;;;2.92;;
140;SDS011;65;48.778;9.160;2023-04-03T09:55:52;4.35;;;2.42;;
140;SDS011;65;48.778;9.160;2023-04-03T09:58:38;6.45;;;2.55;;
140;SDS011;65;48.778;9.160;2023-04-03T10:01:34;4.63;;;2.40;;
140;SDS011;65;48.778;9.160;2023-04-03T10:04:24;4.88;;;2.47;;
140;SDS011;65;48.778;9.160;2023-04-03T10:07:26;4.88;;;2.70;;
140;SDS011;65;48.778;9.160;2023-04-03T10:13:07;7.43;;;2.60;;
140;SDS011;65;48.778;9.160;2023-04-03T10:21:48;7.78;;;2.63;;
140;SDS011;65;48.778;9.160;2023-04-03T10:36:51;4.50;;;2.28;;
140;SDS011;65;48.778;9.160;2023-04-03T10:45:47;6.22;;;2.70;;
140;SDS011;65;48.778;9.160;2023-04-03T10:51:47;6.68;;;2.55;;
140;SDS011;65;48.778;9.160;2023-04-03T10:57:49;5.22;;;2.22;;
140;SDS011;65;48.778;9.160;2023-04-03T11:00:42;4.30;;;2.25;;
140;SDS011;65;48.778;9.160;2023-04-03T11:03:35;7.65;;;2.20;;
140;SDS011;65;48.778;9.160;2023-04-03T11:06:28;7.15;;;2.60;;
140;SDS011;65;48.778;9.160;2023-04-03T11:09:21;4.15;;;2.22;;
140;SDS011;65;48.778;9.160;2023-04-03T11:12:13;4.93;;;2.50;;
140;SDS011;65;48.778;9.160;2023-04-03T11:15:00;6.15;;;2.53;;
140;SDS011;65;48.778;9.160;2023-04-03T11:20:42;6.57;;;2.25;;
140;SDS011;65;48.778;9.160;2023-04-03T11:23:36;3.88;;;2.15;;
140;SDS011;65;48.778;9.160;2023-04-03T11:26:30;6.65;;;2.30;;
140;SDS011;65;48.778;9.160;2023-04-03T11:29:23;3.97;;;1.98;;
140;SDS011;65;48.778;9.160;2023-04-03T11:35:11;3.67;;;1.90;;
140;SDS011;65;48.778;9.160;2023-04-03T11:37:58;3.33;;;1.98;;
140;SDS011;65;48.778;9.160;2023-04-03T11:40:47;5.25;;;2.35;;
140;SDS011;65;48.778;9.160;2023-04-03T11:43:33;5.63;;;2.13;;
140;SDS011;65;48.778;9.160;2023-04-03T11:58:22;6.50;;;2.17;;
140;SDS011;65;48.778;9.160;2023-04-03T12:01:42;4.32;;;2.10;;
140;SDS011;65;48.778;9.160;2023-04-03T12:04:28;4.97;;;1.80;;
140;SDS011;65;48.778;9.160;2023-04-03T12:07:18;3.40;;;2.08;;
140;SDS011;65;48.778;9.160;2023-04-03T12:10:14;4.15;;;2.00;;
140;SDS011;65;48.778;9.160;2023-04-03T12:13:12;6.47;;;2.25;;
140;SDS011;65;48.778;9.160;2023-04-03T12:16:01;4.25;;;2.03;;
140;SDS011;65;48.778;9.160;2023-04-03T12:24:30;5.38;;;2.20;;
140;SDS011;65;48.778;9.160;2023-04-03T12:27:34;5.93;;;2.15;;
140;SDS011;65;48.778;9.160;2023-04-03T12:30:26;5.05;;;2.20;;
140;SDS011;65;48.778;9.160;2023-04-03T12:36:08;5.60;;;2.25;;
140;SDS011;65;48.778;9.160;2023-04-03T12:45:28;7.10;;;2.40;;
140;SDS011;65;48.778;9.160;2023-04-03T12:48:24;5.38;;;1.80;;
140;SDS011;65;48.778;9.160;2023-04-03T12:51:13;6.65;;;2.30;;
140;SDS011;65;48.778;9.160;2023-04-03T12:54:16;4.25;;;2.00;;
140;SDS011;65;48.778;9.160;2023-04-03T12:57:20;5.57;;;2.05;;
140;SDS011;65;48.778;9.160;2023-04-03T13:00:19;6.47;;;2.10;;
140;SDS011;65;48.778;9.160;2023-04-03T13:03:24;4.10;;;1.95;;
140;SDS011;65;48.778;9.160;2023-04-03T13:06:26;3.28;;;2.00;;
140;SDS011;65;48.778;9.160;2023-04-03T13:12:11;5.00;;;2.53;;
140;SDS011;65;48.778;9.160;2023-04-03T13:15:00;5.82;;;2.30;;
140;SDS011;65;48.778;9.160;2023-04-03T13:17:49;4.57;;;2.10;;
140;SDS011;65;48.778;9.160;2023-04-03T13:20:37;7.22;;;2.20;;
140;SDS011;65;48.778;9.160;2023-04-03T13:23:23;6.63;;;2.83;;
140;SDS011;65;48.778;9.160;2023-04-03T13:29:29;4.85;;;2.15;;
140;SDS011;65;48.778;9.160;2023-04-03T13:32:19;4.05;;;2.13;;
140;SDS011;65;48.778;9.160;2023-04-03T13:35:27;5.05;;;2.35;;
140;SDS011;65;48.778;9.160;2023-04-03T13:41:05;6.28;;;2.22;;
140;SDS011;65;48.778;9.160;2023-04-03T13:47:17;6.80;;;2.60;;
140;SDS011;65;48.778;9.160;2023-04-03T13:53:02;6.03;;;1.90;;
140;SDS011;65;48.778;9.160;2023-04-03T13:56:00;3.92;;;2.03;;
140;SDS011;65;48.778;9.160;2023-04-03T13:59:03;3.90;;;2.10;;
140;SDS011;65;48.778;9.160;2023-04-03T14:05:03;4.95;;;2.10;;
140;SDS011;65;48.778;9.160;2023-04-03T14:07:54;5.75;;;2.22;;
140;SDS011;65;48.778;9.160;2023-04-03T14:10:40;5.35;;;2.20;;
140;SDS011;65;48.778;9.160;2023-04-03T14:13:29;6.60;;;2.10;;
140;SDS011;65;48.778;9.160;2023-04-03T14:16:19;5.63;;;2.50;;
140;SDS011;65;48.778;9.160;2023-04-03T14:19:06;7.15;;;2.42;;
140;SDS011;65;48.778;9.160;2023-04-03T14:22:01;6.68;;;2.30;;
140;SDS011;65;48.778;9.160;2023-04-03T14:24:58;6.10;;;2.40;;
140;SDS011;65;48.778;9.160;2023-04-03T14:27:46;4.30;;;2.05;;
140;SDS011;65;48.778;9.160;2023-04-03T14:30:34;4.93;;;2.42;;
140;SDS011;65;48.778;9.160;2023-04-03T14:33:21;9.05;;;2.40;;
140;SDS011;65;48.778;9.160;2023-04-03T14:36:12;5.07;;;2.35;;
140;SDS011;65;48.778;9.160;2023-04-03T14:39:00;3.83;;;2.00;;
140;SDS011;65;48.778;9.160;2023-04-03T14:41:46;3.67;;;1.98;;
140;SDS011;65;48.778;9.160;2023-04-03T14:44:32;5.32;;;2.33;;
140;SDS011;65;48.778;9.160;2023-04-03T14:47:19;3.47;;;2.00;;
140;SDS011;65;48.778;9.160;2023-04-03T14:50:11;4.70;;;1.98;;
140;SDS011;65;48.778;9.160;2023-04-03T14:53:02;5.70;;;2.33;;
140;SDS011;65;48.778;9.160;2023-04-03T14:55:48;4.43;;;2.20;;
140;SDS011;65;48.778;9.160;2023-04-03T14:58:35;3.80;;;2.20;;
140;SDS011;65;48.778;9.160;2023-04-03T15:01:21;4.53;;;1.90;;
140;SDS011;65;48.778;9.160;2023-04-03T15:04:12;4.57;;;2.30;;
140;SDS011;65;48.778;9.160;2023-04-03T15:07:02;6.50;;;2.35;;
140;SDS011;65;48.778;9.160;2023-04-03T15:09:48;6.80;;;2.45;;
140;SDS011;65;48.778;9.160;2023-04-03T15:12:34;4.95;;;2.38;;
140;SDS011;65;48.778;9.160;2023-04-03T15:15:21;4.57;;;2.22;;
140;SDS011;65;48.778;9.160;2023-04-03T15:18:10;5.03;;;2.63;;
140;SDS011;65;48.778;9.160;2023-04-03T15:21:02;4.10;;;2.08;;
140;SDS011;65;48.778;9.160;2023-04-03T15:23:46;5.65;;;2.50;;
140;SDS011;65;48.778;9.160;2023-04-03T15:26:32;5.72;;;2.63;;
140;SDS011;65;48.778;9.160;2023-04-03T15:29:18;6.47;;;2.13;;
140;SDS011;65;48.778;9.160;2023-04-03T15:32:04;3.97;;;1.98;;
140;SDS011;65;48.778;9.160;2023-04-03T15:34:50;4.57;;;2.45;;
140;SDS011;65;48.778;9.160;2023-04-03T15:37:36;6.00;;;2.10;;
140;SDS011;65;48.778;9.160;2023-04-03T15:40:22;6.97;;;2.10;;
140;SDS011;65;48.778;9.160;2023-04-03T15:43:08;5.72;;;2.30;;
140;SDS011;65;48.778;9.160;2023-04-03T15:45:56;4.82;;;2.42;;
140;SDS011;65;48.778;9.160;2023-04-03T15:48:43;7.07;;;2.58;;
140;SDS011;65;48.778;9.160;2023-04-03T15:51:30;3.58;;;2.05;;
140;SDS011;65;48.778;9.160;2023-04-03T15:54:16;4.50;;;2.17;;
140;SDS011;65;48.778;9.160;2023-04-03T15:57:02;4.80;;;2.38;;
140;SDS011;65;48.778;9.160;2023-04-03T15:59:47;4.80;;;2.33;;
140;SDS011;65;48.778;9.160;2023-04-03T16:02:33;4.70;;;2.28;;
140;SDS011;65;48.778;9.160;2023-04-03T16:05:19;3.80;;;2.08;;
140;SDS011;65;48.778;9.160;2023-04-03T16:08:05;5.30;;;2.08;;
140;SDS011;65;48.778;9.160;2023-04-03T16:10:52;4.85;;;2.17;;
140;SDS011;65;48.778;9.160;2023-04-03T16:13:38;5.45;;;2.05;;
140;SDS011;65;48.778;9.160;2023-04-03T16:16:24;3.42;;;1.88;;
140;SDS011;65;48.778;9.160;2023-04-03T16:19:12;5.35;;;2.35;;
140;SDS011;65;48.778;9.160;2023-04-03T16:21:58;6.55;;;2.40;;
140;SDS011;65;48.778;9.160;2023-04-03T16:24:44;5.72;;;2.25;;
140;SDS011;65;48.778;9.160;2023-04-03T16:27:30;5.15;;;2.20;;
140;SDS011;65;48.778;9.160;2023-04-03T16:30:16;4.95;;;2.42;;
140;SDS011;65;48.778;9.160;2023-04-03T16:33:02;3.72;;;2.10;;
140;SDS011;65;48.778;9.160;2023-04-03T16:35:48;5.05;;;2.05;;
140;SDS011;65;48.778;9.160;2023-04-03T16:38:35;3.75;;;1.95;;
140;SDS011;65;48.778;9.160;2023-04-03T16:41:21;6.15;;;2.25;;
140;SDS011;65;48.778;9.160;2023-04-03T16:44:07;5.18;;;2.42;;
140;SDS011;65;48.778;9.160;2023-04-03T16:46:53;5.82;;;2.28;;
140;SDS011;65;48.778;9.160;2023-04-03T16:49:38;6.47;;;2.03;;
140;SDS011;65;48.778;9.160;2023-04-03T16:52:24;6.43;;;2.30;;
140;SDS011;65;48.778;9.160;2023-04-03T16:55:10;5.55;;;2.40;;
140;SDS011;65;48.778;9.160;2023-04-03T16:57:56;6.47;;;2.33;;
140;SDS011;65;48.778;9.160;2023-04-03T17:00:41;4.35;;;2.10;;
140;SDS011;65;48.778;9.160;2023-04-03T17:03:27;6.07;;;2.78;;
140;SDS011;65;48.778;9.160;2023-04-03T17:06:17;3.50;;;2.00;;
140;SDS011;65;48.778;9.160;2023-04-03T17:09:05;7.75;;;2.42;;
140;SDS011;65;48.778;9.160;2023-04-03T17:11:50;5.40;;;2.30;;
140;SDS011;65;48.778;9.160;2023-04-03T17:14:36;4.88;;;2.40;;
140;SDS011;65;48.778;9.160;2023-04-03T17:17:22;4.53;;;2.20;;
140;SDS011;65;48.778;9.160;2023-04-03T17:20:10;4.85;;;2.00;;
140;SDS011;65;48.778;9.160;2023-04-03T17:22:56;6.00;;;1.88;;
140;SDS011;65;48.778;9.160;2023-04-03T17:25:42;4.80;;;2.28;;
140;SDS011;65;48.778;9.160;2023-04-03T17:28:27;6.13;;;2.60;;
140;SDS011;65;48.778;9.160;2023-04-03T17:31:13;5.25;;;2.50;;
140;SDS011;65;48.778;9.160;2023-04-03T17:33:59;4.80;;;2.22;;
140;SDS011;65;48.778;9.160;2023-04-03T17:36:46;6.43;;;2.40;;
140;SDS011;65;48.778;9.160;2023-04-03T17:39:32;5.50;;;2.40;;
140;SDS011;65;48.778;9.160;2023-04-03T17:42:17;4.53;;;2.33;;
140;SDS011;65;48.778;9.160;2023-04-03T17:45:03;5.65;;;2.60;;
140;SDS011;65;48.778;9.160;2023-04-03T17:48:07;4.35;;;2.15;;
140;SDS011;65;48.778;9.160;2023-04-03T17:50:55;5.30;;;2.90;;
140;SDS011;65;48.778;9.160;2023-04-03T17:53:41;6.28;;;2.45;;
140;SDS011;65;48.778;9.160;2023-04-03T17:56:28;6.60;;;2.53;;
140;SDS011;65;48.778;9.160;2023-04-03T17:59:14;6.68;;;3.25;;
140;SDS011;65;48.778;9.160;2023-04-03T18:02:01;5.63;;;2.60;;
140;SDS011;65;48.778;9.160;2023-04-03T18:04:49;5.65;;;2.58;;
140;SDS011;65;48.778;9.160;2023-04-03T18:07:39;5.55;;;2.40;;
140;SDS011;65;48.778;9.160;2023-04-03T18:10:25;4.95;;;2.33;;
140;SDS011;65;48.778;9.160;2023-04-03T18:13:11;5.35;;;2.40;;
140;SDS011;65;48.778;9.160;2023-04-03T18:15:57;4.80;;;2.10;;
140;SDS011;65;48.778;9.160;2023-04-03T18:18:43;7.03;;;2.70;;
140;SDS011;65;48.778;9.160;2023-04-03T18:21:28;4.15;;;2.38;;
140;SDS011;65;48.778;9.160;2023-04-03T18:24:14;7.38;;;2.42;;
140;SDS011;65;48.778;9.160;2023-04-03T18:27:04;4.50;;;2.17;;
140;SDS011;65;48.778;9.160;2023-04-03T18:29:55;4.55;;;2.30;;
140;SDS011;65;48.778;9.160;2023-04-03T18:32:44;3.95;;;2.30;;
140;SDS011;65;48.778;9.160;2023-04-03T18:35:30;4.63;;;2.20;;
140;SDS011;65;48.778;9.160;2023-04-03T18:38:16;5.07;;;2.50;;
140;SDS011;65;48.778;9.160;2023-04-03T18:41:02;4.90;;;2.20;;
140;SDS011;65;48.778;9.160;2023-04-03T18:43:49;5.13;;;2.50;;
140;SDS011;65;48.778;9.160;2023-04-03T18:46:35;3.65;;;1.92;;
140;SDS011;65;48.778;9.160;2023-04-03T18:49:22;5.07;;;2.42;;
140;SDS011;65;48.778;9.160;2023-04-03T18:52:08;7.13;;;2.78;;
140;SDS011;65;48.778;9.160;2023-04-03T18:54:55;5.20;;;2.42;;
140;SDS011;65;48.778;9.160;2023-04-03T18:57:42;5.38;;;2.30;;
140;SDS011;65;48.778;9.160;2023-04-03T19:00:28;5.95;;;2.35;;
140;SDS011;65;48.778;9.160;2023-04-03T19:03:14;7.13;;;2.42;;
140;SDS011;65;48.778;9.160;2023-04-03T19:06:00;5.10;;;2.45;;
140;SDS011;65;48.778;9.160;2023-04-03T19:08:48;5.40;;;2.53;;
140;SDS011;65;48.778;9.160;2023-04-03T19:11:35;4.78;;;2.20;;
140;SDS011;65;48.778;9.160;2023-04-03T19:14:21;4.32;;;2.33;;
140;SDS011;65;48.778;9.160;2023-04-03T19:17:07;5.60;;;2.80;;
140;SDS011;65;48.778;9.160;2023-04-03T19:19:53;5.55;;;2.20;;
140;SDS011;65;48.778;9.160;2023-04-03T19:22:39;5.80;;;2.55;;
140;SDS011;65;48.778;9.160;2023-04-03T19:25:25;5.70;;;2.57;;
140;SDS011;65;48.778;9.160;2023-04-03T19:28:11;7.40;;;2.88;;
140;SDS011;65;48.778;9.160;2023-04-03T19:30:59;7.25;;;2.75;;
140;SDS011;65;48.778;9.160;2023-04-03T19:33:46;6.28;;;2.80;;
140;SDS011;65;48.778;9.160;2023-04-03T19:36:32;5.70;;;2.95;;
140;SDS011;65;48.778;9.160;2023-04-03T19:39:19;5.97;;;2.53;;
140;SDS011;65;48.778;9.160;2023-04-03T19:42:05;4.80;;;2.63;;
140;SDS011;65;48.778;9.160;2023-04-03T19:44:51;6.40;;;2.80;;
140;SDS011;65;48.778;9.160;2023-04-03T19:47:37;7.65;;;2.70;;
140;SDS011;65;48.778;9.160;2023-04-03T19:50:23;5.30;;;2.28;;
140;SDS011;65;48.778;9.160;2023-04-03T19:53:09;5.32;;;2.20;;
140;SDS011;65;48.778;9.160;2023-04-03T19:55:55;5.75;;;2.88;;
140;SDS011;65;48.778;9.160;2023-04-03T19:58:41;6.53;;;2.60;;